sensor_id;sensor_type;location;lat;lon;timestamp;pressure;altitude;pressure_sealevel;temperature;humidity
47524;BME280;33253;42.144;25.884;2022-10-17T00:00:48;101882.59;;;7.80;73.87
47524;BME280;33253;42.144;25.884;2022-10-17T00:03:14;101908.91;;;8.13;73.90
47524;BME280;33253;42.144;25.884;2022-10-17T00:05:41;101911.53;;;8.26;73.44
47524;BME280;33253;42.144;25.884;2022-10-17T00:08:07;101901.66;;;8.07;74.13
47524;BME280;33253;42.144;25.884;2022-10-17T00:10:33;101910.22;;;8.19;73.75
47524;BME280;33253;42.144;25.884;2022-10-17T00:12:58;101906.88;;;8.20;73.06
47524;BME280;33253;42.144;25.884;2022-10-17T00:15:24;101896.59;;;8.20;72.36
47524;BME280;33253;42.144;25.884;2022-10-17T00:17:49;101860.81;;;7.86;72.53
47524;BME280;33253;42.144;25.884;2022-10-17T00:20:15;101891.84;;;8.01;71.73
47524;BME280;33253;42.144;25.884;2022-10-17T00:22:41;101911.59;;;8.14;71.33
47524;BME280;33253;42.144;25.884;2022-10-17T00:25:07;101908.09;;;8.14;71.18
47524;BME280;33253;42.144;25.884;2022-10-17T00:27:36;101882.34;;;8.00;71.13
47524;BME280;33253;42.144;25.884;2022-10-17T00:30:03;101853.72;;;7.96;69.92
47524;BME280;33253;42.144;25.884;2022-10-17T00:32:29;101918.94;;;7.72;71.73
47524;BME280;33253;42.144;25.884;2022-10-17T00:34:54;101915.94;;;7.42;73.31
47524;BME280;33253;42.144;25.884;2022-10-17T00:37:20;101864.47;;;7.29;73.60
47524;BME280;33253;42.144;25.884;2022-10-17T00:39:45;101919.06;;;7.74;73.44
47524;BME280;33253;42.144;25.884;2022-10-17T00:42:14;101867.66;;;7.62;72.50
47524;BME280;33253;42.144;25.884;2022-10-17T00:47:08;101921.41;;;8.20;72.03
47524;BME280;33253;42.144;25.884;2022-10-17T00:49:36;101906.72;;;8.31;70.82
47524;BME280;33253;42.144;25.884;2022-10-17T00:52:09;101902.41;;;8.43;70.09
47524;BME280;33253;42.144;25.884;2022-10-17T00:54:48;101916.53;;;8.48;69.55
47524;BME280;33253;42.144;25.884;2022-10-17T00:57:16;101919.25;;;8.26;69.96
47524;BME280;33253;42.144;25.884;2022-10-17T00:59:43;101910.19;;;7.94;71.85
47524;BME280;33253;42.144;25.884;2022-10-17T01:02:12;101921.16;;;7.80;73.25
47524;BME280;33253;42.144;25.884;2022-10-17T01:04:40;101917.81;;;7.92;73.04
47524;BME280;33253;42.144;25.884;2022-10-17T01:07:06;101928.19;;;7.94;72.66
47524;BME280;33253;42.144;25.884;2022-10-17T01:09:32;101924.00;;;7.59;74.07
47524;BME280;33253;42.144;25.884;2022-10-17T01:20:11;101872.03;;;7.27;74.77
47524;BME280;33253;42.144;25.884;2022-10-17T01:22:48;101922.97;;;7.57;74.29
47524;BME280;33253;42.144;25.884;2022-10-17T01:30:55;101915.59;;;7.50;74.59
47524;BME280;33253;42.144;25.884;2022-10-17T01:36:27;101922.94;;;7.81;73.09
47524;BME280;33253;42.144;25.884;2022-10-17T01:47:18;101919.59;;;7.10;73.07
47524;BME280;33253;42.144;25.884;2022-10-17T01:49:46;101926.28;;;7.08;73.05
47524;BME280;33253;42.144;25.884;2022-10-17T01:52:23;101873.78;;;6.81;73.32
47524;BME280;33253;42.144;25.884;2022-10-17T01:54:53;101925.94;;;6.92;73.94
47524;BME280;33253;42.144;25.884;2022-10-17T01:57:41;101931.38;;;6.96;74.79
47524;BME280;33253;42.144;25.884;2022-10-17T02:00:13;101926.97;;;7.06;74.71
47524;BME280;33253;42.144;25.884;2022-10-17T02:02:40;101936.78;;;7.00;74.05
47524;BME280;33253;42.144;25.884;2022-10-17T02:05:08;101908.94;;;6.82;75.27
47524;BME280;33253;42.144;25.884;2022-10-17T02:07:34;101929.38;;;6.92;75.25
47524;BME280;33253;42.144;25.884;2022-10-17T02:09:59;101937.84;;;6.79;75.80
47524;BME280;33253;42.144;25.884;2022-10-17T02:12:40;101948.06;;;6.68;76.42
47524;BME280;33253;42.144;25.884;2022-10-17T02:23:10;101945.44;;;6.11;78.78
47524;BME280;33253;42.144;25.884;2022-10-17T02:25:43;101947.28;;;6.02;78.73
47524;BME280;33253;42.144;25.884;2022-10-17T02:30:45;101907.91;;;6.12;77.37
47524;BME280;33253;42.144;25.884;2022-10-17T02:33:16;101958.81;;;6.52;75.66
47524;BME280;33253;42.144;25.884;2022-10-17T02:35:49;101956.31;;;6.41;75.94
47524;BME280;33253;42.144;25.884;2022-10-17T02:38:18;101959.97;;;6.33;75.68
47524;BME280;33253;42.144;25.884;2022-10-17T02:40:45;101958.72;;;5.85;78.23
47524;BME280;33253;42.144;25.884;2022-10-17T02:43:12;101950.75;;;5.92;78.33
47524;BME280;33253;42.144;25.884;2022-10-17T02:45:38;101963.34;;;5.99;78.57
47524;BME280;33253;42.144;25.884;2022-10-17T02:48:08;101977.47;;;6.17;78.00
47524;BME280;33253;42.144;25.884;2022-10-17T02:53:50;101961.91;;;6.03;76.54
47524;BME280;33253;42.144;25.884;2022-10-17T02:56:19;101971.78;;;5.98;76.83
47524;BME280;33253;42.144;25.884;2022-10-17T02:58:49;101977.66;;;5.97;76.79
47524;BME280;33253;42.144;25.884;2022-10-17T03:01:16;101983.53;;;5.96;76.33
47524;BME280;33253;42.144;25.884;2022-10-17T03:03:43;101982.81;;;5.87;76.41
47524;BME280;33253;42.144;25.884;2022-10-17T03:06:09;101976.56;;;5.83;76.60
47524;BME280;33253;42.144;25.884;2022-10-17T03:08:34;101996.41;;;5.86;76.17
47524;BME280;33253;42.144;25.884;2022-10-17T03:10:59;101996.78;;;5.80;75.62
47524;BME280;33253;42.144;25.884;2022-10-17T03:13:27;101988.72;;;5.86;75.22
47524;BME280;33253;42.144;25.884;2022-10-17T03:15:54;101953.09;;;5.79;74.70
47524;BME280;33253;42.144;25.884;2022-10-17T03:18:20;101992.81;;;5.94;74.49
47524;BME280;33253;42.144;25.884;2022-10-17T03:20:45;101994.06;;;5.89;74.39
47524;BME280;33253;42.144;25.884;2022-10-17T03:23:12;102005.47;;;5.40;76.65
47524;BME280;33253;42.144;25.884;2022-10-17T03:25:38;101990.00;;;5.17;77.90
47524;BME280;33253;42.144;25.884;2022-10-17T03:28:03;101987.56;;;5.09;78.63
47524;BME280;33253;42.144;25.884;2022-10-17T03:30:30;101992.56;;;5.07;78.53
47524;BME280;33253;42.144;25.884;2022-10-17T03:32:59;101995.88;;;5.16;78.46
47524;BME280;33253;42.144;25.884;2022-10-17T03:35:25;101992.00;;;5.32;75.29
47524;BME280;33253;42.144;25.884;2022-10-17T03:37:51;102003.69;;;5.28;75.38
47524;BME280;33253;42.144;25.884;2022-10-17T03:40:16;102005.97;;;5.35;76.11
47524;BME280;33253;42.144;25.884;2022-10-17T03:42:42;102003.78;;;5.50;76.07
47524;BME280;33253;42.144;25.884;2022-10-17T03:45:07;102003.38;;;5.56;75.77
47524;BME280;33253;42.144;25.884;2022-10-17T03:47:33;102010.03;;;5.64;75.76
47524;BME280;33253;42.144;25.884;2022-10-17T03:49:58;102007.06;;;5.70;75.37
47524;BME280;33253;42.144;25.884;2022-10-17T03:52:24;102009.50;;;5.79;75.02
47524;BME280;33253;42.144;25.884;2022-10-17T03:54:49;102013.34;;;5.74;73.87
47524;BME280;33253;42.144;25.884;2022-10-17T03:57:16;102015.66;;;5.60;73.83
47524;BME280;33253;42.144;25.884;2022-10-17T03:59:42;102010.97;;;5.55;72.97
47524;BME280;33253;42.144;25.884;2022-10-17T04:02:07;102019.56;;;5.45;73.59
47524;BME280;33253;42.144;25.884;2022-10-17T04:04:32;102026.22;;;5.22;73.47
47524;BME280;33253;42.144;25.884;2022-10-17T04:06:58;102029.13;;;4.96;75.17
47524;BME280;33253;42.144;25.884;2022-10-17T04:09:24;101996.06;;;4.58;76.94
47524;BME280;33253;42.144;25.884;2022-10-17T04:11:49;102026.03;;;4.40;78.59
47524;BME280;33253;42.144;25.884;2022-10-17T04:14:14;102033.94;;;4.32;80.19
47524;BME280;33253;42.144;25.884;2022-10-17T04:16:40;102030.59;;;4.52;80.04
47524;BME280;33253;42.144;25.884;2022-10-17T04:19:06;101977.22;;;4.36;79.63
47524;BME280;33253;42.144;25.884;2022-10-17T04:21:31;102041.38;;;4.79;79.35
47524;BME280;33253;42.144;25.884;2022-10-17T04:23:59;102046.91;;;4.94;77.77
47524;BME280;33253;42.144;25.884;2022-10-17T04:26:25;102044.13;;;5.01;76.46
47524;BME280;33253;42.144;25.884;2022-10-17T04:29:10;102037.59;;;4.95;74.94
47524;BME280;33253;42.144;25.884;2022-10-17T04:31:36;102023.34;;;4.78;75.22
47524;BME280;33253;42.144;25.884;2022-10-17T04:34:02;102049.47;;;4.84;75.45
47524;BME280;33253;42.144;25.884;2022-10-17T04:36:27;102056.94;;;4.62;76.09
47524;BME280;33253;42.144;25.884;2022-10-17T04:38:53;102049.28;;;4.72;76.93
47524;BME280;33253;42.144;25.884;2022-10-17T04:41:18;102056.59;;;4.78;76.12
47524;BME280;33253;42.144;25.884;2022-10-17T04:43:44;102036.66;;;4.74;76.62
47524;BME280;33253;42.144;25.884;2022-10-17T04:46:11;102057.78;;;4.92;76.09
47524;BME280;33253;42.144;25.884;2022-10-17T04:48:38;102068.13;;;4.83;76.62
47524;BME280;33253;42.144;25.884;2022-10-17T04:51:06;102058.03;;;4.84;76.83
47524;BME280;33253;42.144;25.884;2022-10-17T04:53:33;102032.78;;;4.68;77.48
47524;BME280;33253;42.144;25.884;2022-10-17T04:56:00;102071.63;;;4.94;77.39
47524;BME280;33253;42.144;25.884;2022-10-17T04:58:27;102019.38;;;4.81;77.09
47524;BME280;33253;42.144;25.884;2022-10-17T05:00:54;102064.13;;;5.16;77.04
47524;BME280;33253;42.144;25.884;2022-10-17T05:03:19;102069.22;;;5.26;77.03
47524;BME280;33253;42.144;25.884;2022-10-17T05:05:45;102066.03;;;5.39;76.38
47524;BME280;33253;42.144;25.884;2022-10-17T05:08:11;102070.38;;;5.50;76.02
47524;BME280;33253;42.144;25.884;2022-10-17T05:10:42;102025.44;;;5.33;75.92
47524;BME280;33253;42.144;25.884;2022-10-17T05:13:08;101982.69;;;5.22;75.36
47524;BME280;33253;42.144;25.884;2022-10-17T05:15:35;102075.38;;;5.70;75.37
47524;BME280;33253;42.144;25.884;2022-10-17T05:18:01;102047.81;;;5.57;75.20
47524;BME280;33253;42.144;25.884;2022-10-17T05:20:26;102067.84;;;5.61;75.24
47524;BME280;33253;42.144;25.884;2022-10-17T05:22:52;102023.88;;;5.56;74.96
47524;BME280;33253;42.144;25.884;2022-10-17T05:25:18;102019.16;;;5.61;74.78
47524;BME280;33253;42.144;25.884;2022-10-17T05:27:43;102068.97;;;5.75;75.32
47524;BME280;33253;42.144;25.884;2022-10-17T05:30:09;102057.47;;;5.39;76.87
47524;BME280;33253;42.144;25.884;2022-10-17T05:32:35;102082.31;;;5.40;78.18
47524;BME280;33253;42.144;25.884;2022-10-17T05:35:01;102078.94;;;5.41;78.59
47524;BME280;33253;42.144;25.884;2022-10-17T05:37:29;102079.34;;;5.56;78.50
47524;BME280;33253;42.144;25.884;2022-10-17T05:39:54;102036.06;;;5.38;78.66
47524;BME280;33253;42.144;25.884;2022-10-17T05:42:20;102082.78;;;5.77;78.38
47524;BME280;33253;42.144;25.884;2022-10-17T05:44:45;102093.66;;;5.95;78.53
47524;BME280;33253;42.144;25.884;2022-10-17T05:47:11;102084.56;;;6.09;77.11
47524;BME280;33253;42.144;25.884;2022-10-17T05:49:36;102089.97;;;6.34;76.52
47524;BME280;33253;42.144;25.884;2022-10-17T05:52:02;102109.25;;;6.61;76.54
47524;BME280;33253;42.144;25.884;2022-10-17T05:54:27;102115.94;;;6.82;76.27
47524;BME280;33253;42.144;25.884;2022-10-17T05:56:54;102113.66;;;7.07;75.36
47524;BME280;33253;42.144;25.884;2022-10-17T05:59:20;102074.00;;;7.03;74.69
47524;BME280;33253;42.144;25.884;2022-10-17T06:01:46;102125.81;;;7.32;73.48
47524;BME280;33253;42.144;25.884;2022-10-17T06:04:11;102116.63;;;7.23;74.12
47524;BME280;33253;42.144;25.884;2022-10-17T06:06:38;102123.94;;;7.41;74.10
47524;BME280;33253;42.144;25.884;2022-10-17T06:09:04;102119.91;;;7.67;73.65
47524;BME280;33253;42.144;25.884;2022-10-17T06:11:30;102107.19;;;7.80;72.90
47524;BME280;33253;42.144;25.884;2022-10-17T06:13:56;102110.22;;;7.98;71.74
47524;BME280;33253;42.144;25.884;2022-10-17T06:16:22;102110.78;;;8.18;72.20
47524;BME280;33253;42.144;25.884;2022-10-17T06:18:47;102122.28;;;8.35;70.98
47524;BME280;33253;42.144;25.884;2022-10-17T06:21:14;102111.91;;;8.09;71.41
47524;BME280;33253;42.144;25.884;2022-10-17T06:23:41;102130.81;;;8.10;72.01
47524;BME280;33253;42.144;25.884;2022-10-17T06:26:07;102131.28;;;8.40;72.11
47524;BME280;33253;42.144;25.884;2022-10-17T06:28:33;102097.34;;;8.46;71.46
47524;BME280;33253;42.144;25.884;2022-10-17T06:30:59;102130.66;;;8.92;70.03
47524;BME280;33253;42.144;25.884;2022-10-17T06:33:27;102124.31;;;9.12;68.90
47524;BME280;33253;42.144;25.884;2022-10-17T06:35:54;102129.97;;;9.31;68.03
47524;BME280;33253;42.144;25.884;2022-10-17T06:38:20;102133.22;;;9.29;67.89
47524;BME280;33253;42.144;25.884;2022-10-17T06:40:46;102094.16;;;8.97;68.66
47524;BME280;33253;42.144;25.884;2022-10-17T06:43:12;102142.69;;;9.42;68.23
47524;BME280;33253;42.144;25.884;2022-10-17T06:45:38;102148.00;;;9.31;67.74
47524;BME280;33253;42.144;25.884;2022-10-17T06:48:04;102108.91;;;9.25;68.02
47524;BME280;33253;42.144;25.884;2022-10-17T06:50:30;102154.09;;;9.45;68.84
47524;BME280;33253;42.144;25.884;2022-10-17T06:52:55;102152.78;;;9.64;68.52
47524;BME280;33253;42.144;25.884;2022-10-17T06:55:20;102147.91;;;9.94;67.50
47524;BME280;33253;42.144;25.884;2022-10-17T06:57:46;102140.28;;;10.09;67.04
47524;BME280;33253;42.144;25.884;2022-10-17T07:00:11;102146.69;;;9.88;67.72
47524;BME280;33253;42.144;25.884;2022-10-17T07:02:37;102123.84;;;9.81;67.46
47524;BME280;33253;42.144;25.884;2022-10-17T07:05:02;102140.16;;;9.94;69.47
47524;BME280;33253;42.144;25.884;2022-10-17T07:07:31;102137.41;;;10.17;67.78
47524;BME280;33253;42.144;25.884;2022-10-17T07:09:57;102130.13;;;10.12;67.64
47524;BME280;33253;42.144;25.884;2022-10-17T07:12:23;102138.50;;;10.21;68.97
47524;BME280;33253;42.144;25.884;2022-10-17T07:14:49;102143.19;;;10.54;67.68
47524;BME280;33253;42.144;25.884;2022-10-17T07:17:15;102139.31;;;10.60;66.59
47524;BME280;33253;42.144;25.884;2022-10-17T07:19:41;102148.44;;;10.82;66.96
47524;BME280;33253;42.144;25.884;2022-10-17T07:22:08;102147.06;;;11.15;66.38
47524;BME280;33253;42.144;25.884;2022-10-17T07:24:33;102144.78;;;11.35;64.28
47524;BME280;33253;42.144;25.884;2022-10-17T07:26:59;102119.50;;;11.16;64.68
47524;BME280;33253;42.144;25.884;2022-10-17T07:29:24;102142.44;;;11.25;65.21
47524;BME280;33253;42.144;25.884;2022-10-17T07:31:50;102139.88;;;11.40;64.68
47524;BME280;33253;42.144;25.884;2022-10-17T07:34:16;102140.13;;;11.58;64.26
47524;BME280;33253;42.144;25.884;2022-10-17T07:36:42;102145.03;;;11.83;62.93
47524;BME280;33253;42.144;25.884;2022-10-17T07:39:07;102143.72;;;12.05;62.59
47524;BME280;33253;42.144;25.884;2022-10-17T07:41:33;102126.75;;;12.10;62.54
47524;BME280;33253;42.144;25.884;2022-10-17T07:43:58;102132.09;;;12.28;62.68
47524;BME280;33253;42.144;25.884;2022-10-17T07:46:24;102102.47;;;12.23;61.67
47524;BME280;33253;42.144;25.884;2022-10-17T07:48:49;102133.31;;;12.50;61.53
47524;BME280;33253;42.144;25.884;2022-10-17T07:51:15;102127.59;;;12.55;61.16
47524;BME280;33253;42.144;25.884;2022-10-17T07:53:42;102130.59;;;12.63;60.69
47524;BME280;33253;42.144;25.884;2022-10-17T07:56:09;102134.03;;;12.78;60.73
47524;BME280;33253;42.144;25.884;2022-10-17T07:58:35;102127.56;;;12.87;59.83
47524;BME280;33253;42.144;25.884;2022-10-17T08:01:03;102118.50;;;12.95;59.41
47524;BME280;33253;42.144;25.884;2022-10-17T08:03:29;102120.84;;;13.07;59.13
47524;BME280;33253;42.144;25.884;2022-10-17T08:05:59;102116.00;;;13.13;59.09
47524;BME280;33253;42.144;25.884;2022-10-17T08:08:25;102122.72;;;13.26;59.02
47524;BME280;33253;42.144;25.884;2022-10-17T08:10:50;102117.69;;;13.29;57.87
47524;BME280;33253;42.144;25.884;2022-10-17T08:13:16;102116.50;;;13.39;57.72
47524;BME280;33253;42.144;25.884;2022-10-17T08:15:41;102096.31;;;13.50;58.94
47524;BME280;33253;42.144;25.884;2022-10-17T08:18:07;102105.03;;;13.68;58.53
47524;BME280;33253;42.144;25.884;2022-10-17T08:20:32;102111.28;;;13.90;57.01
47524;BME280;33253;42.144;25.884;2022-10-17T08:22:58;102114.75;;;13.90;56.85
47524;BME280;33253;42.144;25.884;2022-10-17T08:25:23;102114.56;;;14.04;56.02
47524;BME280;33253;42.144;25.884;2022-10-17T08:27:49;102112.56;;;14.16;55.87
47524;BME280;33253;42.144;25.884;2022-10-17T08:30:15;102115.63;;;14.26;55.42
47524;BME280;33253;42.144;25.884;2022-10-17T08:32:41;102108.38;;;14.38;55.05
47524;BME280;33253;42.144;25.884;2022-10-17T08:35:06;102107.97;;;14.47;54.73
47524;BME280;33253;42.144;25.884;2022-10-17T08:37:32;102107.22;;;14.49;54.30
47524;BME280;33253;42.144;25.884;2022-10-17T08:39:57;102114.09;;;14.49;54.05
47524;BME280;33253;42.144;25.884;2022-10-17T08:42:44;102113.72;;;14.59;54.70
47524;BME280;33253;42.144;25.884;2022-10-17T08:45:47;102114.25;;;14.70;54.98
47524;BME280;33253;42.144;25.884;2022-10-17T08:48:18;102111.47;;;14.85;53.75
47524;BME280;33253;42.144;25.884;2022-10-17T08:55:48;102099.16;;;15.20;53.38
47524;BME280;33253;42.144;25.884;2022-10-17T08:58:18;102087.50;;;15.31;53.37
47524;BME280;33253;42.144;25.884;2022-10-17T09:06:38;102078.16;;;16.20;51.77
47524;BME280;33253;42.144;25.884;2022-10-17T09:22:29;102075.94;;;16.76;53.19
47524;BME280;33253;42.144;25.884;2022-10-17T09:25:02;102071.34;;;16.91;52.60
47524;BME280;33253;42.144;25.884;2022-10-17T09:27:51;102070.56;;;17.18;51.47
47524;BME280;33253;42.144;25.884;2022-10-17T09:30:34;102063.13;;;17.29;51.26
47524;BME280;33253;42.144;25.884;2022-10-17T09:33:10;102049.09;;;17.27;51.37
47524;BME280;33253;42.144;25.884;2022-10-17T09:35:36;102066.34;;;17.22;51.04
47524;BME280;33253;42.144;25.884;2022-10-17T09:38:03;102062.63;;;17.15;51.41
47524;BME280;33253;42.144;25.884;2022-10-17T09:40:33;102064.09;;;17.33;51.93
47524;BME280;33253;42.144;25.884;2022-10-17T09:43:01;102023.13;;;17.30;50.52
47524;BME280;33253;42.144;25.884;2022-10-17T11:02:48;101986.09;;;19.55;49.06
47524;BME280;33253;42.144;25.884;2022-10-17T11:05:19;101985.84;;;19.44;48.94
47524;BME280;33253;42.144;25.884;2022-10-17T11:07:52;101991.28;;;19.52;48.97
47524;BME280;33253;42.144;25.884;2022-10-17T11:10:30;101985.22;;;19.54;48.97
47524;BME280;33253;42.144;25.884;2022-10-17T11:13:08;101973.41;;;19.72;47.33
47524;BME280;33253;42.144;25.884;2022-10-17T11:18:09;101985.63;;;20.10;46.80
47524;BME280;33253;42.144;25.884;2022-10-17T11:23:33;101969.81;;;20.48;46.98
47524;BME280;33253;42.144;25.884;2022-10-17T11:26:04;101972.56;;;20.52;48.71
47524;BME280;33253;42.144;25.884;2022-10-17T11:28:31;101974.09;;;20.43;47.81
47524;BME280;33253;42.144;25.884;2022-10-17T11:31:06;101940.63;;;19.90;48.95
47524;BME280;33253;42.144;25.884;2022-10-17T11:33:48;101967.88;;;19.96;48.65
47524;BME280;33253;42.144;25.884;2022-10-17T11:36:15;101983.16;;;19.78;48.62
47524;BME280;33253;42.144;25.884;2022-10-17T11:41:22;101977.91;;;20.16;47.16
47524;BME280;33253;42.144;25.884;2022-10-17T11:44:14;101969.44;;;20.28;46.90
47524;BME280;33253;42.144;25.884;2022-10-17T11:46:41;101979.25;;;20.38;47.26
47524;BME280;33253;42.144;25.884;2022-10-17T11:49:15;101948.59;;;20.35;45.85
47524;BME280;33253;42.144;25.884;2022-10-17T11:54:50;101947.53;;;20.70;45.95
47524;BME280;33253;42.144;25.884;2022-10-17T12:05:48;101949.47;;;20.80;45.40
47524;BME280;33253;42.144;25.884;2022-10-17T12:08:22;101909.84;;;20.20;45.92
47524;BME280;33253;42.144;25.884;2022-10-17T12:15:55;101942.78;;;20.08;46.02
47524;BME280;33253;42.144;25.884;2022-10-17T12:18:24;101937.34;;;20.00;47.63
47524;BME280;33253;42.144;25.884;2022-10-17T12:20:59;101935.06;;;20.15;46.43
47524;BME280;33253;42.144;25.884;2022-10-17T12:23:31;101933.66;;;20.31;45.96
47524;BME280;33253;42.144;25.884;2022-10-17T12:26:07;101889.94;;;20.32;46.94
47524;BME280;33253;42.144;25.884;2022-10-17T12:31:22;101935.31;;;20.72;47.67
47524;BME280;33253;42.144;25.884;2022-10-17T12:33:57;101926.41;;;20.64;46.09
47524;BME280;33253;42.144;25.884;2022-10-17T12:39:40;101928.66;;;20.44;46.11
47524;BME280;33253;42.144;25.884;2022-10-17T13:00:41;101920.88;;;20.06;45.63
47524;BME280;33253;42.144;25.884;2022-10-17T13:03:16;101919.25;;;20.12;46.41
47524;BME280;33253;42.144;25.884;2022-10-17T13:05:52;101911.41;;;20.12;46.06
47524;BME280;33253;42.144;25.884;2022-10-17T13:08:41;101918.41;;;20.12;47.51
47524;BME280;33253;42.144;25.884;2022-10-17T13:11:08;101919.13;;;20.06;46.70
47524;BME280;33253;42.144;25.884;2022-10-17T13:13:41;101915.66;;;20.06;46.89
47524;BME280;33253;42.144;25.884;2022-10-17T13:16:38;101919.94;;;20.02;45.71
47524;BME280;33253;42.144;25.884;2022-10-17T13:19:13;101909.44;;;20.00;46.25
47524;BME280;33253;42.144;25.884;2022-10-17T13:21:38;101913.63;;;19.94;45.79
47524;BME280;33253;42.144;25.884;2022-10-17T13:24:33;101911.81;;;19.90;45.41
47524;BME280;33253;42.144;25.884;2022-10-17T13:27:00;101894.38;;;19.92;44.63
47524;BME280;33253;42.144;25.884;2022-10-17T13:29:27;101884.44;;;19.78;45.28
47524;BME280;33253;42.144;25.884;2022-10-17T13:32:01;101866.13;;;19.80;45.72
47524;BME280;33253;42.144;25.884;2022-10-17T13:34:29;101914.78;;;20.05;44.16
47524;BME280;33253;42.144;25.884;2022-10-17T13:37:00;101916.50;;;20.04;45.00
47524;BME280;33253;42.144;25.884;2022-10-17T13:39:29;101911.09;;;19.97;44.06
47524;BME280;33253;42.144;25.884;2022-10-17T13:41:57;101904.91;;;19.93;44.25
47524;BME280;33253;42.144;25.884;2022-10-17T13:44:25;101930.25;;;19.93;45.08
47524;BME280;33253;42.144;25.884;2022-10-17T13:46:52;101931.22;;;19.98;44.19
47524;BME280;33253;42.144;25.884;2022-10-17T13:51:49;101923.97;;;19.87;45.25
47524;BME280;33253;42.144;25.884;2022-10-17T13:54:17;101918.66;;;19.83;45.61
47524;BME280;33253;42.144;25.884;2022-10-17T13:56:43;101913.44;;;19.83;45.03
47524;BME280;33253;42.144;25.884;2022-10-17T13:59:24;101933.56;;;19.85;43.70
47524;BME280;33253;42.144;25.884;2022-10-17T14:01:50;101885.72;;;19.58;44.12
47524;BME280;33253;42.144;25.884;2022-10-17T14:04:16;101927.25;;;19.79;43.96
47524;BME280;33253;42.144;25.884;2022-10-17T14:06:43;101921.31;;;19.84;44.14
47524;BME280;33253;42.144;25.884;2022-10-17T14:11:43;101921.97;;;19.76;44.48
47524;BME280;33253;42.144;25.884;2022-10-17T14:14:18;101917.41;;;19.67;44.34
47524;BME280;33253;42.144;25.884;2022-10-17T14:16:45;101889.78;;;19.43;44.97
47524;BME280;33253;42.144;25.884;2022-10-17T14:19:31;101898.66;;;19.50;44.56
47524;BME280;33253;42.144;25.884;2022-10-17T14:24:48;101930.25;;;19.56;43.58
47524;BME280;33253;42.144;25.884;2022-10-17T14:29:52;101928.53;;;19.56;43.77
47524;BME280;33253;42.144;25.884;2022-10-17T14:32:18;101901.94;;;19.39;44.27
47524;BME280;33253;42.144;25.884;2022-10-17T14:34:45;101930.22;;;19.54;43.85
47524;BME280;33253;42.144;25.884;2022-10-17T14:37:40;101930.22;;;19.54;44.44
47524;BME280;33253;42.144;25.884;2022-10-17T14:40:22;101930.13;;;19.51;43.88
47524;BME280;33253;42.144;25.884;2022-10-17T14:42:50;101930.94;;;19.49;43.62
47524;BME280;33253;42.144;25.884;2022-10-17T14:45:37;101937.00;;;19.46;44.24
47524;BME280;33253;42.144;25.884;2022-10-17T14:48:11;101936.94;;;19.43;45.13
47524;BME280;33253;42.144;25.884;2022-10-17T14:50:38;101922.63;;;19.29;44.06
47524;BME280;33253;42.144;25.884;2022-10-17T14:53:05;101935.81;;;19.32;43.43
47524;BME280;33253;42.144;25.884;2022-10-17T14:55:33;101930.44;;;19.27;43.59
47524;BME280;33253;42.144;25.884;2022-10-17T14:57:59;101938.13;;;19.21;44.28
47524;BME280;33253;42.144;25.884;2022-10-17T15:00:25;101933.84;;;19.23;44.46
47524;BME280;33253;42.144;25.884;2022-10-17T15:02:52;101938.19;;;19.22;43.53
47524;BME280;33253;42.144;25.884;2022-10-17T15:05:20;101942.44;;;19.19;43.91
47524;BME280;33253;42.144;25.884;2022-10-17T15:07:47;101948.47;;;19.15;44.83
47524;BME280;33253;42.144;25.884;2022-10-17T15:10:27;101946.59;;;19.09;44.34
47524;BME280;33253;42.144;25.884;2022-10-17T15:12:53;101886.16;;;18.68;44.91
47524;BME280;33253;42.144;25.884;2022-10-17T15:15:18;101935.69;;;18.92;44.97
47524;BME280;33253;42.144;25.884;2022-10-17T15:17:43;101953.25;;;18.98;45.21
47524;BME280;33253;42.144;25.884;2022-10-17T15:20:13;101914.28;;;18.76;44.83
47524;BME280;33253;42.144;25.884;2022-10-17T15:22:40;101948.72;;;18.90;44.74
47524;BME280;33253;42.144;25.884;2022-10-17T15:25:06;101950.38;;;18.88;44.97
47524;BME280;33253;42.144;25.884;2022-10-17T15:27:33;101956.41;;;18.86;44.99
47524;BME280;33253;42.144;25.884;2022-10-17T15:29:59;101942.88;;;18.69;45.79
47524;BME280;33253;42.144;25.884;2022-10-17T15:32:24;101959.38;;;18.66;46.36
47524;BME280;33253;42.144;25.884;2022-10-17T15:34:50;101962.00;;;18.66;46.25
47524;BME280;33253;42.144;25.884;2022-10-17T15:37:20;101967.94;;;18.61;46.83
47524;BME280;33253;42.144;25.884;2022-10-17T15:39:52;101964.25;;;18.54;47.31
47524;BME280;33253;42.144;25.884;2022-10-17T15:42:25;101969.66;;;18.60;47.66
47524;BME280;33253;42.144;25.884;2022-10-17T15:44:51;101976.50;;;18.55;47.54
47524;BME280;33253;42.144;25.884;2022-10-17T15:47:23;101976.50;;;18.55;47.58
47524;BME280;33253;42.144;25.884;2022-10-17T15:49:49;101934.75;;;18.27;47.52
47524;BME280;33253;42.144;25.884;2022-10-17T15:52:15;101940.72;;;18.22;47.73
47524;BME280;33253;42.144;25.884;2022-10-17T15:54:41;101983.06;;;18.40;48.47
47524;BME280;33253;42.144;25.884;2022-10-17T15:57:15;101980.50;;;18.42;48.35
47524;BME280;33253;42.144;25.884;2022-10-17T15:59:42;101986.56;;;18.41;48.29
47524;BME280;33253;42.144;25.884;2022-10-17T16:02:16;101984.72;;;18.37;48.76
47524;BME280;33253;42.144;25.884;2022-10-17T16:04:42;101990.59;;;18.30;49.17
47524;BME280;33253;42.144;25.884;2022-10-17T16:07:08;102008.00;;;18.29;50.73
47524;BME280;33253;42.144;25.884;2022-10-17T16:09:34;102000.69;;;18.17;50.56
47524;BME280;33253;42.144;25.884;2022-10-17T16:12:02;102008.38;;;18.13;50.32
47524;BME280;33253;42.144;25.884;2022-10-17T16:14:27;101971.16;;;17.92;50.56